sensor_id;sensor_type;location;lat;lon;timestamp;pressure;altitude;pressure_sealevel;temperature;humidity
69911;BME280;63555;49.920;17.868;2023-07-22T00:01:07;98163.00;;;14.59;100.00
69911;BME280;63555;49.920;17.868;2023-07-22T00:06:09;98171.94;;;14.58;100.00
69911;BME280;63555;49.920;17.868;2023-07-22T00:11:10;98184.38;;;14.57;100.00
69911;BME280;63555;49.920;17.868;2023-07-22T00:16:10;98180.84;;;14.49;100.00
69911;BME280;63555;49.920;17.868;2023-07-22T00:21:11;98193.09;;;14.32;100.00
69911;BME280;63555;49.920;17.868;2023-07-22T00:26:11;98191.69;;;14.20;100.00
69911;BME280;63555;49.920;17.868;2023-07-22T00:31:12;98190.09;;;14.09;100.00
69911;BME280;63555;49.920;17.868;2023-07-22T00:36:13;98189.72;;;14.04;100.00
69911;BME280;63555;49.920;17.868;2023-07-22T00:41:13;98183.06;;;14.00;100.00
69911;BME280;63555;49.920;17.868;2023-07-22T00:46:14;98194.66;;;13.99;100.00
69911;BME280;63555;49.920;17.868;2023-07-22T00:51:15;98206.09;;;13.99;100.00
69911;BME280;63555;49.920;17.868;2023-07-22T00:56:15;98202.75;;;13.97;100.00
69911;BME280;63555;49.920;17.868;2023-07-22T01:01:16;98192.34;;;13.86;100.00
69911;BME280;63555;49.920;17.868;2023-07-22T01:06:17;98196.28;;;13.82;100.00
69911;BME280;63555;49.920;17.868;2023-07-22T01:11:19;98195.22;;;13.75;100.00
69911;BME280;63555;49.920;17.868;2023-07-22T01:16:20;98210.34;;;13.83;100.00
69911;BME280;63555;49.920;17.868;2023-07-22T01:21:22;98211.59;;;13.88;100.00
69911;BME280;63555;49.920;17.868;2023-07-22T01:26:25;98210.13;;;13.76;100.00
69911;BME280;63555;49.920;17.868;2023-07-22T01:31:25;98204.88;;;13.66;99.72
69911;BME280;63555;49.920;17.868;2023-07-22T01:36:26;98194.88;;;13.60;99.72
69911;BME280;63555;49.920;17.868;2023-07-22T01:41:26;98208.38;;;13.67;99.66
69911;BME280;63555;49.920;17.868;2023-07-22T01:46:28;98199.84;;;13.46;99.00
69911;BME280;63555;49.920;17.868;2023-07-22T01:51:28;98207.56;;;13.39;99.46
69911;BME280;63555;49.920;17.868;2023-07-22T01:56:28;98229.53;;;13.49;100.00
69911;BME280;63555;49.920;17.868;2023-07-22T02:01:29;98232.22;;;13.67;100.00
69911;BME280;63555;49.920;17.868;2023-07-22T02:06:30;98230.34;;;13.77;100.00
69911;BME280;63555;49.920;17.868;2023-07-22T02:11:31;98236.19;;;13.81;100.00
69911;BME280;63555;49.920;17.868;2023-07-22T02:16:31;98232.91;;;13.96;100.00
69911;BME280;63555;49.920;17.868;2023-07-22T02:21:32;98238.56;;;14.01;100.00
69911;BME280;63555;49.920;17.868;2023-07-22T02:26:32;98230.94;;;13.98;100.00
69911;BME280;63555;49.920;17.868;2023-07-22T02:31:34;98234.19;;;13.92;100.00
69911;BME280;63555;49.920;17.868;2023-07-22T02:36:34;98267.00;;;14.09;100.00
69911;BME280;63555;49.920;17.868;2023-07-22T02:41:38;98272.22;;;14.19;100.00
69911;BME280;63555;49.920;17.868;2023-07-22T02:46:38;98266.84;;;14.28;100.00
69911;BME280;63555;49.920;17.868;2023-07-22T02:51:38;98273.31;;;14.44;100.00
69911;BME280;63555;49.920;17.868;2023-07-22T02:56:39;98249.81;;;14.49;100.00
69911;BME280;63555;49.920;17.868;2023-07-22T03:01:39;98263.38;;;14.46;100.00
69911;BME280;63555;49.920;17.868;2023-07-22T03:06:40;98265.09;;;14.37;100.00
69911;BME280;63555;49.920;17.868;2023-07-22T03:11:42;98269.72;;;14.35;100.00
69911;BME280;63555;49.920;17.868;2023-07-22T03:16:42;98257.16;;;14.37;100.00
69911;BME280;63555;49.920;17.868;2023-07-22T03:21:43;98251.53;;;14.40;100.00
69911;BME280;63555;49.920;17.868;2023-07-22T03:26:43;98268.00;;;14.44;100.00
69911;BME280;63555;49.920;17.868;2023-07-22T03:31:44;98293.47;;;14.54;100.00
69911;BME280;63555;49.920;17.868;2023-07-22T03:36:44;98294.22;;;14.64;100.00
69911;BME280;63555;49.920;17.868;2023-07-22T03:41:44;98305.75;;;14.73;100.00
69911;BME280;63555;49.920;17.868;2023-07-22T03:46:45;98330.03;;;14.78;100.00
69911;BME280;63555;49.920;17.868;2023-07-22T03:51:45;98340.03;;;14.84;100.00
69911;BME280;63555;49.920;17.868;2023-07-22T03:56:46;98336.25;;;14.87;100.00
69911;BME280;63555;49.920;17.868;2023-07-22T04:01:46;98344.22;;;14.87;100.00
69911;BME280;63555;49.920;17.868;2023-07-22T04:06:47;98346.41;;;14.91;100.00
69911;BME280;63555;49.920;17.868;2023-07-22T04:11:48;98364.38;;;14.97;100.00
69911;BME280;63555;49.920;17.868;2023-07-22T04:16:48;98368.47;;;14.92;100.00
69911;BME280;63555;49.920;17.868;2023-07-22T04:21:49;98383.81;;;14.98;100.00
69911;BME280;63555;49.920;17.868;2023-07-22T04:26:49;98377.25;;;15.10;100.00
69911;BME280;63555;49.920;17.868;2023-07-22T04:31:49;98375.03;;;15.23;100.00
69911;BME280;63555;49.920;17.868;2023-07-22T04:36:50;98384.91;;;15.31;100.00
69911;BME280;63555;49.920;17.868;2023-07-22T04:41:51;98380.53;;;15.48;100.00
69911;BME280;63555;49.920;17.868;2023-07-22T04:46:52;98390.63;;;15.62;100.00
69911;BME280;63555;49.920;17.868;2023-07-22T04:51:52;98397.66;;;15.71;100.00
69911;BME280;63555;49.920;17.868;2023-07-22T04:56:53;98411.56;;;15.91;100.00
69911;BME280;63555;49.920;17.868;2023-07-22T05:01:53;98412.81;;;16.05;100.00
69911;BME280;63555;49.920;17.868;2023-07-22T05:06:54;98416.38;;;15.87;100.00
69911;BME280;63555;49.920;17.868;2023-07-22T05:11:54;98416.56;;;15.94;100.00
69911;BME280;63555;49.920;17.868;2023-07-22T05:16:54;98410.03;;;15.80;100.00
69911;BME280;63555;49.920;17.868;2023-07-22T05:21:55;98414.72;;;15.60;100.00
69911;BME280;63555;49.920;17.868;2023-07-22T05:26:55;98422.41;;;15.54;100.00
69911;BME280;63555;49.920;17.868;2023-07-22T05:31:56;98431.41;;;15.71;100.00
69911;BME280;63555;49.920;17.868;2023-07-22T05:36:56;98428.56;;;15.98;100.00
69911;BME280;63555;49.920;17.868;2023-07-22T05:41:56;98429.97;;;16.10;100.00
69911;BME280;63555;49.920;17.868;2023-07-22T05:46:57;98433.88;;;16.32;100.00
69911;BME280;63555;49.920;17.868;2023-07-22T05:51:57;98436.38;;;16.34;100.00
69911;BME280;63555;49.920;17.868;2023-07-22T05:56:58;98441.84;;;16.32;100.00
69911;BME280;63555;49.920;17.868;2023-07-22T06:01:58;98445.00;;;16.28;100.00
69911;BME280;63555;49.920;17.868;2023-07-22T06:06:59;98440.72;;;16.35;100.00
69911;BME280;63555;49.920;17.868;2023-07-22T06:11:59;98441.03;;;16.32;100.00
69911;BME280;63555;49.920;17.868;2023-07-22T06:17:00;98439.38;;;16.39;100.00
69911;BME280;63555;49.920;17.868;2023-07-22T06:22:00;98429.31;;;16.50;100.00
69911;BME280;63555;49.920;17.868;2023-07-22T06:27:00;98437.91;;;16.78;100.00
69911;BME280;63555;49.920;17.868;2023-07-22T06:32:01;98435.91;;;18.10;100.00
69911;BME280;63555;49.920;17.868;2023-07-22T06:37:02;98432.13;;;19.89;100.00
69911;BME280;63555;49.920;17.868;2023-07-22T06:42:03;98444.31;;;21.80;100.00
69911;BME280;63555;49.920;17.868;2023-07-22T06:47:04;98449.47;;;23.60;90.32
69911;BME280;63555;49.920;17.868;2023-07-22T06:52:05;98445.25;;;25.39;81.91
69911;BME280;63555;49.920;17.868;2023-07-22T06:57:06;98450.94;;;26.85;76.10
69911;BME280;63555;49.920;17.868;2023-07-22T07:02:06;98463.56;;;27.51;72.37
69911;BME280;63555;49.920;17.868;2023-07-22T07:07:07;98464.53;;;26.79;73.68
69911;BME280;63555;49.920;17.868;2023-07-22T07:12:08;98473.88;;;27.61;71.41
69911;BME280;63555;49.920;17.868;2023-07-22T07:17:09;98487.50;;;28.54;68.07
69911;BME280;63555;49.920;17.868;2023-07-22T07:22:09;98481.75;;;29.14;65.79
69911;BME280;63555;49.920;17.868;2023-07-22T07:27:10;98477.94;;;29.72;62.87
69911;BME280;63555;49.920;17.868;2023-07-22T07:32:10;98489.09;;;30.04;61.50
69911;BME280;63555;49.920;17.868;2023-07-22T07:37:11;98493.03;;;30.30;59.90
69911;BME280;63555;49.920;17.868;2023-07-22T07:42:11;98479.56;;;30.57;58.92
69911;BME280;63555;49.920;17.868;2023-07-22T07:47:11;98490.72;;;30.99;56.88
69911;BME280;63555;49.920;17.868;2023-07-22T07:52:12;98497.97;;;30.50;55.95
69911;BME280;63555;49.920;17.868;2023-07-22T07:57:12;98484.28;;;30.84;53.19
69911;BME280;63555;49.920;17.868;2023-07-22T08:02:13;98494.88;;;31.24;52.33
69911;BME280;63555;49.920;17.868;2023-07-22T08:07:16;98499.91;;;31.64;48.32
69911;BME280;63555;49.920;17.868;2023-07-22T08:12:16;98502.56;;;32.13;43.13
69911;BME280;63555;49.920;17.868;2023-07-22T08:17:17;98511.16;;;32.74;41.15
69911;BME280;63555;49.920;17.868;2023-07-22T08:22:17;98506.03;;;32.82;38.76
69911;BME280;63555;49.920;17.868;2023-07-22T08:27:18;98502.41;;;33.29;34.93
69911;BME280;63555;49.920;17.868;2023-07-22T08:32:18;98505.75;;;33.46;33.99
69911;BME280;63555;49.920;17.868;2023-07-22T08:37:19;98508.56;;;34.12;32.84
69911;BME280;63555;49.920;17.868;2023-07-22T08:42:20;98507.47;;;34.34;29.75
69911;BME280;63555;49.920;17.868;2023-07-22T08:47:24;98505.25;;;34.51;29.79
69911;BME280;63555;49.920;17.868;2023-07-22T08:52:28;98504.38;;;34.66;28.79
69911;BME280;63555;49.920;17.868;2023-07-22T08:57:29;98508.47;;;34.78;28.52
69911;BME280;63555;49.920;17.868;2023-07-22T09:02:30;98512.31;;;35.47;28.38
69911;BME280;63555;49.920;17.868;2023-07-22T09:07:31;98506.69;;;35.72;26.82
69911;BME280;63555;49.920;17.868;2023-07-22T09:12:32;98513.69;;;35.44;26.93
69911;BME280;63555;49.920;17.868;2023-07-22T09:17:32;98507.94;;;35.46;26.87
69911;BME280;63555;49.920;17.868;2023-07-22T09:22:33;98509.72;;;35.17;26.11
69911;BME280;63555;49.920;17.868;2023-07-22T09:27:34;98501.75;;;35.20;26.13
69911;BME280;63555;49.920;17.868;2023-07-22T09:32:35;98510.75;;;35.26;25.92
69911;BME280;63555;49.920;17.868;2023-07-22T09:37:37;98503.66;;;35.74;25.19
69911;BME280;63555;49.920;17.868;2023-07-22T09:42:38;98514.31;;;36.15;24.66
69911;BME280;63555;49.920;17.868;2023-07-22T09:47:46;98505.25;;;36.14;25.25
69911;BME280;63555;49.920;17.868;2023-07-22T09:52:50;98510.88;;;35.60;24.84
69911;BME280;63555;49.920;17.868;2023-07-22T09:57:53;98518.16;;;35.80;23.92
69911;BME280;63555;49.920;17.868;2023-07-22T10:02:56;98519.22;;;35.89;23.96
69911;BME280;63555;49.920;17.868;2023-07-22T10:07:58;98521.56;;;36.34;24.08
69911;BME280;63555;49.920;17.868;2023-07-22T10:12:59;98505.94;;;36.01;23.57
69911;BME280;63555;49.920;17.868;2023-07-22T10:18:02;98515.94;;;35.87;23.98
69911;BME280;63555;49.920;17.868;2023-07-22T10:23:04;98519.41;;;36.31;23.98
69911;BME280;63555;49.920;17.868;2023-07-22T10:28:05;98518.94;;;35.41;24.86
69911;BME280;63555;49.920;17.868;2023-07-22T10:33:06;98520.88;;;35.35;24.58
69911;BME280;63555;49.920;17.868;2023-07-22T10:38:07;98517.34;;;35.25;24.54
69911;BME280;63555;49.920;17.868;2023-07-22T10:43:09;98503.91;;;35.78;24.15
69911;BME280;63555;49.920;17.868;2023-07-22T10:48:12;98496.84;;;35.66;23.65
69911;BME280;63555;49.920;17.868;2023-07-22T10:53:20;98506.56;;;35.43;24.45
69911;BME280;63555;49.920;17.868;2023-07-22T10:58:23;98507.28;;;36.03;23.91
69911;BME280;63555;49.920;17.868;2023-07-22T11:03:23;98516.72;;;36.21;22.63
69911;BME280;63555;49.920;17.868;2023-07-22T11:08:37;98524.22;;;35.77;23.18
69911;BME280;63555;49.920;17.868;2023-07-22T11:13:38;98514.19;;;35.52;22.82
69911;BME280;63555;49.920;17.868;2023-07-22T11:18:41;98504.19;;;34.11;23.63
69911;BME280;63555;49.920;17.868;2023-07-22T11:23:42;98512.84;;;33.47;25.13
69911;BME280;63555;49.920;17.868;2023-07-22T11:28:42;98516.50;;;34.29;24.85
69911;BME280;63555;49.920;17.868;2023-07-22T11:33:43;98515.59;;;34.79;24.19
69911;BME280;63555;49.920;17.868;2023-07-22T11:38:46;98515.69;;;35.29;23.71
69911;BME280;63555;49.920;17.868;2023-07-22T11:43:47;98514.72;;;34.99;22.48
69911;BME280;63555;49.920;17.868;2023-07-22T11:48:57;98515.13;;;34.37;23.48
69911;BME280;63555;49.920;17.868;2023-07-22T11:53:57;98521.38;;;34.58;23.22
69911;BME280;63555;49.920;17.868;2023-07-22T11:58:58;98516.34;;;35.05;22.88
69911;BME280;63555;49.920;17.868;2023-07-22T12:03:58;98526.44;;;35.15;22.05
69911;BME280;63555;49.920;17.868;2023-07-22T12:08:59;98519.69;;;34.92;21.93
69911;BME280;63555;49.920;17.868;2023-07-22T12:14:10;98518.25;;;35.10;22.25
69911;BME280;63555;49.920;17.868;2023-07-22T12:19:11;98516.22;;;35.36;22.77
69911;BME280;63555;49.920;17.868;2023-07-22T12:24:14;98513.31;;;35.07;22.44
69911;BME280;63555;49.920;17.868;2023-07-22T12:29:15;98515.81;;;35.63;22.00
69911;BME280;63555;49.920;17.868;2023-07-22T12:34:15;98505.03;;;35.71;21.10
69911;BME280;63555;49.920;17.868;2023-07-22T12:39:15;98507.28;;;35.10;22.17
69911;BME280;63555;49.920;17.868;2023-07-22T12:44:16;98517.06;;;34.11;22.89
69911;BME280;63555;49.920;17.868;2023-07-22T12:49:16;98495.72;;;34.03;23.33
69911;BME280;63555;49.920;17.868;2023-07-22T12:54:17;98497.75;;;34.97;22.81
69911;BME280;63555;49.920;17.868;2023-07-22T12:59:17;98488.53;;;34.53;23.01
69911;BME280;63555;49.920;17.868;2023-07-22T13:04:18;98491.31;;;34.32;22.88
69911;BME280;63555;49.920;17.868;2023-07-22T13:09:19;98479.28;;;34.08;22.91
69911;BME280;63555;49.920;17.868;2023-07-22T13:14:20;98479.84;;;34.05;23.07
69911;BME280;63555;49.920;17.868;2023-07-22T13:19:20;98481.44;;;34.31;22.61
69911;BME280;63555;49.920;17.868;2023-07-22T13:24:21;98474.53;;;32.70;23.29
69911;BME280;63555;49.920;17.868;2023-07-22T13:29:22;98469.06;;;30.66;24.97
69911;BME280;63555;49.920;17.868;2023-07-22T13:34:22;98472.91;;;30.48;25.76
69911;BME280;63555;49.920;17.868;2023-07-22T13:39:22;98464.09;;;31.23;25.06
69911;BME280;63555;49.920;17.868;2023-07-22T13:44:23;98473.44;;;31.91;24.49
69911;BME280;63555;49.920;17.868;2023-07-22T13:49:23;98461.66;;;32.18;24.43
69911;BME280;63555;49.920;17.868;2023-07-22T13:54:24;98459.00;;;31.64;24.36
69911;BME280;63555;49.920;17.868;2023-07-22T13:59:24;98470.00;;;30.55;25.80
69911;BME280;63555;49.920;17.868;2023-07-22T14:04:25;98470.47;;;30.13;26.14
69911;BME280;63555;49.920;17.868;2023-07-22T14:09:25;98468.88;;;29.67;27.30
69911;BME280;63555;49.920;17.868;2023-07-22T14:14:25;98474.00;;;29.97;26.96
69911;BME280;63555;49.920;17.868;2023-07-22T14:19:28;98479.84;;;29.43;26.86
69911;BME280;63555;49.920;17.868;2023-07-22T14:24:29;98471.00;;;29.48;27.54
69911;BME280;63555;49.920;17.868;2023-07-22T14:29:30;98464.22;;;28.94;28.21
69911;BME280;63555;49.920;17.868;2023-07-22T14:34:30;98454.53;;;28.98;28.41
69911;BME280;63555;49.920;17.868;2023-07-22T14:39:30;98448.19;;;28.80;28.32
69911;BME280;63555;49.920;17.868;2023-07-22T14:44:31;98446.19;;;29.16;28.55
69911;BME280;63555;49.920;17.868;2023-07-22T14:49:33;98447.72;;;29.86;27.73
69911;BME280;63555;49.920;17.868;2023-07-22T14:54:33;98462.88;;;30.15;26.56
69911;BME280;63555;49.920;17.868;2023-07-22T14:59:34;98450.47;;;29.12;26.96
69911;BME280;63555;49.920;17.868;2023-07-22T15:04:34;98454.13;;;28.66;28.25
69911;BME280;63555;49.920;17.868;2023-07-22T15:09:35;98449.09;;;28.34;28.49
69911;BME280;63555;49.920;17.868;2023-07-22T15:14:46;98453.31;;;27.95;29.85
69911;BME280;63555;49.920;17.868;2023-07-22T15:19:46;98439.72;;;27.72;30.11
69911;BME280;63555;49.920;17.868;2023-07-22T15:24:47;98438.00;;;28.01;29.98
69911;BME280;63555;49.920;17.868;2023-07-22T15:29:47;98437.84;;;27.72;30.10
69911;BME280;63555;49.920;17.868;2023-07-22T15:34:48;98443.19;;;27.07;30.95
69911;BME280;63555;49.920;17.868;2023-07-22T15:39:48;98429.31;;;26.67;31.31
69911;BME280;63555;49.920;17.868;2023-07-22T15:44:49;98435.72;;;26.54;31.65
69911;BME280;63555;49.920;17.868;2023-07-22T15:49:49;98435.09;;;26.89;32.17
69911;BME280;63555;49.920;17.868;2023-07-22T15:54:50;98433.94;;;27.15;31.89
69911;BME280;63555;49.920;17.868;2023-07-22T15:59:51;98444.47;;;27.35;31.98
69911;BME280;63555;49.920;17.868;2023-07-22T16:04:51;98440.34;;;27.02;32.13
69911;BME280;63555;49.920;17.868;2023-07-22T16:09:52;98439.25;;;26.55;32.30
69911;BME280;63555;49.920;17.868;2023-07-22T16:14:54;98444.88;;;26.53;32.74
69911;BME280;63555;49.920;17.868;2023-07-22T16:19:55;98450.44;;;26.58;32.67
69911;BME280;63555;49.920;17.868;2023-07-22T16:24:55;98443.22;;;26.52;32.75
69911;BME280;63555;49.920;17.868;2023-07-22T16:29:56;98453.09;;;26.22;33.39
69911;BME280;63555;49.920;17.868;2023-07-22T16:34:57;98447.94;;;25.70;34.12
69911;BME280;63555;49.920;17.868;2023-07-22T16:39:57;98460.97;;;25.49;34.66
69911;BME280;63555;49.920;17.868;2023-07-22T16:44:58;98458.56;;;25.34;35.10
69911;BME280;63555;49.920;17.868;2023-07-22T16:49:59;98461.84;;;25.43;34.95
69911;BME280;63555;49.920;17.868;2023-07-22T16:54:59;98459.19;;;25.36;35.05
69911;BME280;63555;49.920;17.868;2023-07-22T17:00:00;98468.91;;;24.99;35.19
69911;BME280;63555;49.920;17.868;2023-07-22T17:05:00;98471.16;;;24.51;35.34
69911;BME280;63555;49.920;17.868;2023-07-22T17:10:01;98480.53;;;24.15;35.86
69911;BME280;63555;49.920;17.868;2023-07-22T17:15:02;98473.09;;;23.84;36.21
69911;BME280;63555;49.920;17.868;2023-07-22T17:20:02;98467.28;;;23.61;37.61
69911;BME280;63555;49.920;17.868;2023-07-22T17:25:03;98468.28;;;23.46;37.61
69911;BME280;63555;49.920;17.868;2023-07-22T17:30:04;98478.38;;;23.38;37.68
69911;BME280;63555;49.920;17.868;2023-07-22T17:35:05;98470.31;;;23.31;37.64
69911;BME280;63555;49.920;17.868;2023-07-22T17:40:06;98480.44;;;23.23;38.05
69911;BME280;63555;49.920;17.868;2023-07-22T17:45:07;98473.38;;;23.15;37.93
69911;BME280;63555;49.920;17.868;2023-07-22T17:50:08;98474.16;;;23.02;38.17
69911;BME280;63555;49.920;17.868;2023-07-22T17:55:09;98471.84;;;22.86;38.16
69911;BME280;63555;49.920;17.868;2023-07-22T18:00:10;98471.53;;;22.68;38.38
69911;BME280;63555;49.920;17.868;2023-07-22T18:05:10;98466.22;;;22.46;38.50
69911;BME280;63555;49.920;17.868;2023-07-22T18:10:11;98465.66;;;22.16;39.13
69911;BME280;63555;49.920;17.868;2023-07-22T18:15:11;98467.44;;;21.81;40.10
69911;BME280;63555;49.920;17.868;2023-07-22T18:20:12;98475.13;;;21.42;41.09
69911;BME280;63555;49.920;17.868;2023-07-22T18:25:12;98466.25;;;21.05;41.77
69911;BME280;63555;49.920;17.868;2023-07-22T18:30:13;98469.56;;;20.71;42.91
69911;BME280;63555;49.920;17.868;2023-07-22T18:35:13;98481.97;;;20.43;43.62
69911;BME280;63555;49.920;17.868;2023-07-22T18:40:14;98493.09;;;20.17;44.62
69911;BME280;63555;49.920;17.868;2023-07-22T18:45:14;98494.75;;;20.03;45.22
69911;BME280;63555;49.920;17.868;2023-07-22T18:50:15;98506.59;;;19.86;45.67
69911;BME280;63555;49.920;17.868;2023-07-22T18:55:16;98519.66;;;19.66;46.56
69911;BME280;63555;49.920;17.868;2023-07-22T19:00:16;98521.75;;;19.48;48.17
69911;BME280;63555;49.920;17.868;2023-07-22T19:05:18;98526.75;;;19.28;49.34
69911;BME280;63555;49.920;17.868;2023-07-22T19:10:19;98540.56;;;19.00;50.61
69911;BME280;63555;49.920;17.868;2023-07-22T19:15:19;98545.72;;;18.71;51.11
69911;BME280;63555;49.920;17.868;2023-07-22T19:20:20;98548.63;;;18.37;52.04
69911;BME280;63555;49.920;17.868;2023-07-22T19:25:20;98560.81;;;18.15;52.87
69911;BME280;63555;49.920;17.868;2023-07-22T19:30:21;98556.34;;;17.83;53.86
69911;BME280;63555;49.920;17.868;2023-07-22T19:35:22;98567.97;;;17.49;54.95
69911;BME280;63555;49.920;17.868;2023-07-22T19:40:23;98563.53;;;17.16;55.77
69911;BME280;63555;49.920;17.868;2023-07-22T19:45:23;98573.28;;;16.91;56.39
69911;BME280;63555;49.920;17.868;2023-07-22T19:50:25;98578.75;;;16.55;57.15
69911;BME280;63555;49.920;17.868;2023-07-22T19:55:25;98587.50;;;16.22;58.08
69911;BME280;63555;49.920;17.868;2023-07-22T20:00:26;98590.59;;;15.91;58.40
69911;BME280;63555;49.920;17.868;2023-07-22T20:05:26;98587.19;;;15.64;59.14
69911;BME280;63555;49.920;17.868;2023-07-22T20:10:27;98580.06;;;15.64;58.97
69911;BME280;63555;49.920;17.868;2023-07-22T20:15:28;98590.16;;;15.60;58.97
69911;BME280;63555;49.920;17.868;2023-07-22T20:20:29;98591.69;;;15.53;59.29
69911;BME280;63555;49.920;17.868;2023-07-22T20:25:30;98600.56;;;15.44;59.67
69911;BME280;63555;49.920;17.868;2023-07-22T20:30:31;98590.59;;;15.28;60.34
69911;BME280;63555;49.920;17.868;2023-07-22T20:35:31;98598.75;;;15.00;60.99
69911;BME280;63555;49.920;17.868;2023-07-22T20:40:32;98604.19;;;14.61;63.01
69911;BME280;63555;49.920;17.868;2023-07-22T20:45:32;98599.22;;;14.48;63.33
69911;BME280;63555;49.920;17.868;2023-07-22T20:50:33;98595.88;;;14.46;63.19
69911;BME280;63555;49.920;17.868;2023-07-22T20:55:34;98604.94;;;14.44;63.34
69911;BME280;63555;49.920;17.868;2023-07-22T21:00:34;98613.16;;;14.41;63.42
69911;BME280;63555;49.920;17.868;2023-07-22T21:05:35;98611.13;;;14.25;63.80
69911;BME280;63555;49.920;17.868;2023-07-22T21:10:35;98606.56;;;13.98;64.87
69911;BME280;63555;49.920;17.868;2023-07-22T21:15:36;98613.78;;;13.67;65.81
69911;BME280;63555;49.920;17.868;2023-07-22T21:20:36;98613.75;;;13.38;67.14
69911;BME280;63555;49.920;17.868;2023-07-22T21:25:37;98623.09;;;13.42;67.09
69911;BME280;63555;49.920;17.868;2023-07-22T21:30:37;98631.44;;;13.28;67.44
69911;BME280;63555;49.920;17.868;2023-07-22T21:35:38;98645.97;;;13.03;68.32
69911;BME280;63555;49.920;17.868;2023-07-22T21:40:38;98642.13;;;12.86;68.80
69911;BME280;63555;49.920;17.868;2023-07-22T21:45:38;98644.88;;;12.75;69.03
69911;BME280;63555;49.920;17.868;2023-07-22T21:50:39;98652.09;;;12.73;69.45
69911;BME280;63555;49.920;17.868;2023-07-22T21:55:40;98638.47;;;12.77;68.98
69911;BME280;63555;49.920;17.868;2023-07-22T22:00:40;98646.59;;;12.86;68.98
69911;BME280;63555;49.920;17.868;2023-07-22T22:05:41;98643.75;;;12.77;69.13
69911;BME280;63555;49.920;17.868;2023-07-22T22:10:41;98657.97;;;12.76;69.01
69911;BME280;63555;49.920;17.868;2023-07-22T22:15:45;98654.91;;;12.51;70.13
69911;BME280;63555;49.920;17.868;2023-07-22T22:20:45;98652.34;;;12.39;70.58
69911;BME280;63555;49.920;17.868;2023-07-22T22:25:45;98652.59;;;12.36;70.68
69911;BME280;63555;49.920;17.868;2023-07-22T22:30:46;98651.88;;;12.34;70.88
69911;BME280;63555;49.920;17.868;2023-07-22T22:35:46;98656.66;;;12.40;70.69
69911;BME280;63555;49.920;17.868;2023-07-22T22:40:47;98657.09;;;12.46;70.76
69911;BME280;63555;49.920;17.868;2023-07-22T22:45:48;98650.84;;;12.47;70.70
69911;BME280;63555;49.920;17.868;2023-07-22T22:50:48;98650.28;;;12.43;70.84
69911;BME280;63555;49.920;17.868;2023-07-22T22:55:49;98642.16;;;12.14;71.36
69911;BME280;63555;49.920;17.868;2023-07-22T23:00:51;98649.78;;;11.96;72.28
69911;BME280;63555;49.920;17.868;2023-07-22T23:05:52;98649.50;;;11.78;72.81
69911;BME280;63555;49.920;17.868;2023-07-22T23:10:52;98653.72;;;11.70;73.07
69911;BME280;63555;49.920;17.868;2023-07-22T23:15:52;98643.41;;;11.67;72.86
69911;BME280;63555;49.920;17.868;2023-07-22T23:20:53;98637.06;;;11.58;73.34
69911;BME280;63555;49.920;17.868;2023-07-22T23:25:53;98641.16;;;11.51;73.26
69911;BME280;63555;49.920;17.868;2023-07-22T23:30:57;98635.69;;;11.43;73.65
69911;BME280;63555;49.920;17.868;2023-07-22T23:36:00;98639.63;;;11.48;73.59
69911;BME280;63555;49.920;17.868;2023-07-22T23:41:02;98633.50;;;11.48;73.38
69911;BME280;63555;49.920;17.868;2023-07-22T23:46:02;98630.41;;;11.43;73.59
69911;BME280;63555;49.920;17.868;2023-07-22T23:51:03;98631.56;;;11.50;73.80
69911;BME280;63555;49.920;17.868;2023-07-22T23:56:03;98627.47;;;11.57;73.52
